Time;durP1;ratioP1;P1;durP2;ratioP2;P2;SDS_P1;SDS_P2;PMS_P1;PMS_P2;Temp;Humidity;BMP_temperature;BMP_pressure;BME280_temperature;BME280_humidity;BME280_pressure;Samples;Min_cycle;Max_cycle;Signal;HPM_P1;HPM_P2
2022/04/30 00:02:23;;;;;;;7.95;3.03;;;;;;;;;;5049776;28;20023;-70
2022/04/30 00:04:49;;;;;;;5.05;2.90;;;;;;;;;;5049509;28;20028;-70
2022/04/30 00:07:18;;;;;;;7.18;2.80;;;;;;;;;;5049763;28;20596;-71
2022/04/30 00:09:44;;;;;;;4.28;2.72;;;;;;;;;;5049110;28;20047;-71
2022/04/30 00:12:10;;;;;;;4.82;2.63;;;;;;;;;;5049371;28;20028;-69
2022/04/30 00:14:37;;;;;;;5.53;2.95;;;;;;;;;;5049373;28;20391;-71
2022/04/30 00:17:03;;;;;;;4.75;2.85;;;;;;;;;;5049678;28;20029;-71
2022/04/30 00:19:29;;;;;;;4.55;2.90;;;;;;;;;;5049182;28;20267;-71
2022/04/30 00:21:55;;;;;;;4.38;2.75;;;;;;;;;;5049677;28;20025;-70
2022/04/30 00:24:22;;;;;;;5.47;3.03;;;;;;;;;;5049646;28;20285;-71
2022/04/30 00:26:48;;;;;;;3.92;2.70;;;;;;;;;;5049449;28;20444;-71
2022/04/30 00:29:14;;;;;;;5.85;3.25;;;;;;;;;;5048920;28;20020;-71
2022/04/30 00:31:40;;;;;;;4.75;3.00;;;;;;;;;;5049381;28;20025;-72
2022/04/30 00:34:05;;;;;;;7.43;2.80;;;;;;;;;;5049189;28;20025;-71
2022/04/30 00:36:31;;;;;;;6.30;3.08;;;;;;;;;;5052007;28;20083;-71
2022/04/30 00:38:57;;;;;;;4.32;2.60;;;;;;;;;;5052872;28;20053;-71
2022/04/30 00:41:23;;;;;;;5.20;3.00;;;;;;;;;;5053015;28;20191;-72
2022/04/30 00:43:50;;;;;;;4.93;2.90;;;;;;;;;;5052947;28;20080;-70
2022/04/30 00:46:24;;;;;;;5.95;3.00;;;;;;;;;;5052712;28;20377;-70
2022/04/30 00:48:50;;;;;;;5.18;3.03;;;;;;;;;;5052849;28;20021;-71
2022/04/30 00:51:19;;;;;;;3.90;2.90;;;;;;;;;;5053337;28;20032;-70
2022/04/30 00:53:46;;;;;;;6.40;3.10;;;;;;;;;;5052919;28;20473;-70
2022/04/30 00:56:15;;;;;;;5.93;3.17;;;;;;;;;;5052793;28;20041;-70
2022/04/30 00:58:42;;;;;;;5.18;3.10;;;;;;;;;;5052833;28;20481;-70
2022/04/30 01:01:08;;;;;;;6.43;3.25;;;;;;;;;;5052362;28;20029;-70
2022/04/30 01:03:34;;;;;;;7.50;3.30;;;;;;;;;;5052587;28;20029;-70
2022/04/30 01:06:01;;;;;;;7.05;3.20;;;;;;;;;;5052277;28;20033;-70
2022/04/30 01:08:27;;;;;;;6.00;3.20;;;;;;;;;;5052432;28;20105;-70
2022/04/30 01:10:54;;;;;;;7.40;3.00;;;;;;;;;;5052513;28;20162;-70
2022/04/30 01:13:20;;;;;;;7.68;3.50;;;;;;;;;;5053038;28;20024;-71
2022/04/30 01:15:46;;;;;;;4.38;3.10;;;;;;;;;;5052306;28;20415;-71
2022/04/30 01:18:11;;;;;;;5.05;3.15;;;;;;;;;;5052243;28;20034;-71
2022/04/30 01:20:40;;;;;;;5.20;2.95;;;;;;;;;;5052074;28;20021;-71
2022/04/30 01:23:06;;;;;;;4.97;2.90;;;;;;;;;;5052297;28;20390;-70
2022/04/30 01:25:32;;;;;;;7.60;2.92;;;;;;;;;;5051867;28;20162;-70
2022/04/30 01:28:02;;;;;;;4.80;2.90;;;;;;;;;;5052632;28;20086;-70
2022/04/30 01:30:28;;;;;;;5.95;3.00;;;;;;;;;;5051917;28;20029;-71
2022/04/30 01:38:22;;;;;;;5.10;2.92;;;;;;;;;;5051791;28;20502;-71
2022/04/30 01:40:47;;;;;;;5.72;3.17;;;;;;;;;;5051685;28;20045;-71
2022/04/30 01:43:15;;;;;;;5.55;3.10;;;;;;;;;;5052111;28;20051;-71
2022/04/30 01:45:43;;;;;;;5.10;2.78;;;;;;;;;;5051628;28;20061;-71
2022/04/30 01:48:12;;;;;;;4.93;3.40;;;;;;;;;;5052028;28;20025;-71
2022/04/30 01:50:38;;;;;;;8.32;2.90;;;;;;;;;;5051918;28;20021;-71
2022/04/30 01:53:03;;;;;;;4.93;2.92;;;;;;;;;;5051887;28;20443;-72
2022/04/30 01:55:29;;;;;;;5.18;2.90;;;;;;;;;;5051448;28;20054;-70
2022/04/30 01:57:55;;;;;;;4.75;2.80;;;;;;;;;;5051743;28;20036;-70
2022/04/30 02:00:20;;;;;;;6.78;3.17;;;;;;;;;;5050946;28;20056;-70
2022/04/30 02:02:50;;;;;;;4.60;2.90;;;;;;;;;;5051630;28;20019;-70
2022/04/30 02:05:19;;;;;;;4.53;2.88;;;;;;;;;;5051336;28;20476;-70
2022/04/30 02:08:02;;;;;;;5.25;2.97;;;;;;;;;;5051646;28;20025;-71
2022/04/30 02:10:28;;;;;;;4.82;2.78;;;;;;;;;;5051057;28;20032;-70
2022/04/30 02:12:54;;;;;;;3.90;2.75;;;;;;;;;;5051270;28;20025;-70
2022/04/30 02:15:20;;;;;;;5.47;2.80;;;;;;;;;;5051167;28;20028;-71
2022/04/30 02:17:49;;;;;;;3.60;2.60;;;;;;;;;;5051260;28;20032;-71
2022/04/30 02:20:22;;;;;;;4.88;2.78;;;;;;;;;;5051150;28;20037;-71
2022/04/30 02:22:49;;;;;;;4.88;2.80;;;;;;;;;;5051183;28;20025;-70
2022/04/30 02:25:16;;;;;;;4.85;2.95;;;;;;;;;;5050964;28;20071;-72
2022/04/30 02:27:43;;;;;;;6.13;3.00;;;;;;;;;;5050969;28;20025;-71
2022/04/30 02:30:11;;;;;;;4.45;2.67;;;;;;;;;;5050320;28;20112;-71
2022/04/30 02:32:46;;;;;;;5.25;2.83;;;;;;;;;;5050806;28;20033;-71
2022/04/30 02:35:24;;;;;;;4.55;3.00;;;;;;;;;;5051015;28;20052;-70
2022/04/30 02:37:52;;;;;;;4.90;2.90;;;;;;;;;;5050664;28;20029;-70
2022/04/30 02:40:19;;;;;;;6.40;2.78;;;;;;;;;;5050870;28;20121;-71
2022/04/30 02:42:45;;;;;;;4.38;2.88;;;;;;;;;;5050624;28;20105;-71
2022/04/30 02:45:13;;;;;;;5.30;3.10;;;;;;;;;;5050813;28;20067;-71
2022/04/30 02:47:40;;;;;;;5.30;2.65;;;;;;;;;;5050573;28;20059;-70
2022/04/30 02:50:14;;;;;;;6.50;2.92;;;;;;;;;;5050377;28;20424;-71
2022/04/30 02:52:43;;;;;;;4.22;2.92;;;;;;;;;;5050525;28;20044;-71
2022/04/30 02:55:10;;;;;;;4.47;2.90;;;;;;;;;;5050732;28;20071;-70
2022/04/30 03:00:39;;;;;;;4.50;2.83;;;;;;;;;;5050468;28;20043;-71
2022/04/30 03:03:09;;;;;;;5.10;2.72;;;;;;;;;;5050265;28;20013;-71
2022/04/30 03:05:36;;;;;;;4.68;3.08;;;;;;;;;;5050360;28;20028;-71
2022/04/30 03:08:11;;;;;;;4.10;2.65;;;;;;;;;;5050044;28;20024;-71
2022/04/30 03:10:36;;;;;;;4.85;2.78;;;;;;;;;;5050388;28;20036;-70
2022/04/30 03:13:01;;;;;;;5.55;2.92;;;;;;;;;;5050378;28;20477;-72
2022/04/30 03:15:29;;;;;;;5.90;3.13;;;;;;;;;;5050257;28;20531;-71
2022/04/30 03:23:22;;;;;;;4.30;2.72;;;;;;;;;;5050198;28;20027;-70
2022/04/30 03:25:48;;;;;;;4.25;2.95;;;;;;;;;;5049840;28;20017;-71
2022/04/30 03:28:13;;;;;;;4.03;2.50;;;;;;;;;;5049944;28;20279;-71
2022/04/30 03:30:39;;;;;;;4.65;2.90;;;;;;;;;;5050187;28;20052;-70
2022/04/30 03:33:08;;;;;;;6.55;2.95;;;;;;;;;;5049833;28;20079;-71
2022/04/30 03:35:34;;;;;;;4.18;2.83;;;;;;;;;;5050156;28;20021;-71
2022/04/30 03:37:59;;;;;;;4.10;2.72;;;;;;;;;;5049352;28;20029;-70
2022/04/30 03:40:25;;;;;;;4.72;2.85;;;;;;;;;;5049646;28;20396;-70
2022/04/30 03:42:50;;;;;;;5.82;3.00;;;;;;;;;;5049599;28;20028;-70
2022/04/30 03:45:15;;;;;;;5.00;3.13;;;;;;;;;;5050033;28;20074;-70
2022/04/30 03:47:41;;;;;;;5.38;3.42;;;;;;;;;;5049568;28;20025;-70
2022/04/30 03:50:07;;;;;;;6.75;3.53;;;;;;;;;;5049916;28;20025;-72
2022/04/30 03:52:33;;;;;;;6.70;3.55;;;;;;;;;;5049581;28;20095;-71
2022/04/30 03:54:58;;;;;;;7.43;3.40;;;;;;;;;;5049614;28;20100;-71
2022/04/30 03:57:25;;;;;;;5.43;3.45;;;;;;;;;;5049226;28;20090;-70
2022/04/30 03:59:51;;;;;;;9.40;3.58;;;;;;;;;;5049620;28;20063;-70
2022/04/30 04:02:18;;;;;;;8.60;3.80;;;;;;;;;;5049483;28;20092;-70
2022/04/30 04:04:44;;;;;;;6.07;3.38;;;;;;;;;;5049853;28;20021;-70
2022/04/30 04:07:10;;;;;;;8.20;4.18;;;;;;;;;;5049271;28;20044;-70
2022/04/30 04:09:36;;;;;;;7.40;4.03;;;;;;;;;;5050917;28;20537;-70
2022/04/30 04:12:01;;;;;;;5.60;3.72;;;;;;;;;;5053375;28;20252;-70
2022/04/30 04:19:55;;;;;;;11.18;4.65;;;;;;;;;;5053561;28;20040;-70
2022/04/30 04:22:20;;;;;;;10.00;4.57;;;;;;;;;;5053501;28;20037;-70
2022/04/30 04:27:30;;;;;;;8.02;3.92;;;;;;;;;;5053077;28;20401;-71
2022/04/30 04:29:56;;;;;;;7.93;4.30;;;;;;;;;;5053060;28;20473;-70
2022/04/30 04:32:22;;;;;;;6.80;3.72;;;;;;;;;;5053157;28;20052;-71
2022/04/30 04:34:48;;;;;;;8.38;3.67;;;;;;;;;;5053283;28;20545;-71
2022/04/30 04:37:14;;;;;;;8.20;4.13;;;;;;;;;;5053155;28;20120;-70
2022/04/30 04:39:39;;;;;;;7.50;4.15;;;;;;;;;;5053554;28;20109;-71
2022/04/30 04:42:07;;;;;;;6.75;4.20;;;;;;;;;;5052872;28;20402;-70
2022/04/30 04:44:34;;;;;;;8.73;4.25;;;;;;;;;;5052992;28;20116;-70
2022/04/30 04:47:00;;;;;;;8.27;4.50;;;;;;;;;;5052554;28;20064;-71
2022/04/30 04:49:26;;;;;;;8.85;4.18;;;;;;;;;;5052861;28;20032;-70
2022/04/30 04:51:52;;;;;;;9.40;4.40;;;;;;;;;;5052760;28;20568;-70
2022/04/30 04:54:17;;;;;;;8.35;3.80;;;;;;;;;;5052978;28;20109;-71
2022/04/30 04:56:44;;;;;;;8.90;4.30;;;;;;;;;;5052774;28;20403;-71
2022/04/30 04:59:09;;;;;;;10.00;4.47;;;;;;;;;;5052583;28;20049;-70
2022/04/30 05:01:36;;;;;;;7.72;4.82;;;;;;;;;;5052805;28;20059;-70
2022/04/30 05:04:02;;;;;;;9.57;4.22;;;;;;;;;;5052410;28;20098;-70
2022/04/30 05:06:27;;;;;;;11.15;4.65;;;;;;;;;;5052709;28;20044;-70
2022/04/30 05:08:53;;;;;;;6.72;4.07;;;;;;;;;;5052332;28;20339;-70
2022/04/30 05:11:19;;;;;;;9.40;4.60;;;;;;;;;;5052726;28;20071;-70
2022/04/30 05:13:44;;;;;;;12.02;4.43;;;;;;;;;;5034311;28;20061;-70
2022/04/30 05:16:09;;;;;;;10.18;5.00;;;;;;;;;;5052332;28;20465;-70
2022/04/30 05:18:35;;;;;;;9.30;4.47;;;;;;;;;;5052488;28;20100;-70
2022/04/30 05:21:00;;;;;;;7.10;4.30;;;;;;;;;;5051672;28;20025;-70
2022/04/30 05:23:26;;;;;;;15.43;4.45;;;;;;;;;;5052121;28;20021;-70
2022/04/30 05:25:51;;;;;;;7.18;3.97;;;;;;;;;;5052177;28;20102;-70
2022/04/30 05:28:16;;;;;;;9.88;4.10;;;;;;;;;;5051998;28;20028;-70
2022/04/30 05:30:42;;;;;;;7.32;3.67;;;;;;;;;;5051991;28;20028;-70
2022/04/30 05:33:07;;;;;;;5.75;3.20;;;;;;;;;;5052184;28;20442;-71
2022/04/30 05:35:33;;;;;;;10.43;3.25;;;;;;;;;;5052586;28;20431;-70
2022/04/30 05:37:58;;;;;;;4.32;2.70;;;;;;;;;;5051573;28;20036;-70
2022/04/30 05:40:24;;;;;;;4.90;2.83;;;;;;;;;;5051809;28;20102;-71
2022/04/30 05:42:49;;;;;;;5.32;3.00;;;;;;;;;;5051751;28;20025;-71
2022/04/30 05:45:14;;;;;;;10.35;3.30;;;;;;;;;;5052007;28;20035;-70
2022/04/30 05:47:40;;;;;;;8.40;2.95;;;;;;;;;;5051652;28;20166;-70
2022/04/30 05:50:06;;;;;;;5.60;3.00;;;;;;;;;;5051954;28;20032;-70
2022/04/30 05:52:35;;;;;;;6.07;3.20;;;;;;;;;;5051866;28;20029;-72
2022/04/30 05:55:02;;;;;;;5.30;3.17;;;;;;;;;;5051711;28;20033;-70
2022/04/30 05:57:29;;;;;;;7.90;3.25;;;;;;;;;;5051408;28;20071;-71
2022/04/30 05:59:55;;;;;;;8.48;3.30;;;;;;;;;;5051381;28;20108;-71
2022/04/30 06:02:20;;;;;;;4.68;2.92;;;;;;;;;;5051430;28;20024;-71
2022/04/30 06:04:46;;;;;;;7.18;3.10;;;;;;;;;;5052012;28;20029;-71
2022/04/30 06:07:12;;;;;;;6.57;3.05;;;;;;;;;;5051435;28;20158;-70
2022/04/30 06:09:37;;;;;;;8.15;3.10;;;;;;;;;;5051118;28;20033;-70
2022/04/30 06:12:03;;;;;;;6.72;3.25;;;;;;;;;;5051455;28;20028;-71
2022/04/30 06:14:29;;;;;;;5.82;2.78;;;;;;;;;;5050838;28;20175;-70
2022/04/30 06:16:55;;;;;;;5.72;2.85;;;;;;;;;;5051434;28;20094;-70
2022/04/30 06:19:21;;;;;;;6.95;3.00;;;;;;;;;;5051165;28;20029;-70
2022/04/30 06:21:48;;;;;;;5.80;2.90;;;;;;;;;;5033377;28;20036;-70
2022/04/30 06:24:14;;;;;;;5.13;2.90;;;;;;;;;;5051356;28;20044;-71
2022/04/30 06:26:40;;;;;;;5.13;2.80;;;;;;;;;;5051166;28;20396;-71
2022/04/30 06:29:06;;;;;;;4.75;2.78;;;;;;;;;;5050304;28;20053;-70
2022/04/30 06:31:31;;;;;;;5.75;3.00;;;;;;;;;;5051182;28;20033;-74
2022/04/30 06:33:57;;;;;;;5.38;2.78;;;;;;;;;;5049932;28;20406;-75
2022/04/30 06:36:22;;;;;;;4.07;2.80;;;;;;;;;;5050919;28;20036;-73
2022/04/30 06:38:49;;;;;;;6.30;3.03;;;;;;;;;;5050425;28;20021;-73
2022/04/30 06:41:14;;;;;;;5.60;2.67;;;;;;;;;;5032882;28;20079;-73
2022/04/30 06:43:41;;;;;;;6.18;3.20;;;;;;;;;;5050616;28;20048;-74
2022/04/30 06:46:07;;;;;;;11.10;3.30;;;;;;;;;;5050591;28;20057;-73
2022/04/30 06:48:33;;;;;;;7.80;2.90;;;;;;;;;;5050244;28;20039;-73
2022/04/30 06:50:59;;;;;;;5.32;2.70;;;;;;;;;;5050598;28;20650;-74
2022/04/30 06:58:55;;;;;;;5.25;2.60;;;;;;;;;;5047020;28;20455;-75
2022/04/30 07:03:49;;;;;;;5.25;2.85;;;;;;;;;;5049935;28;20525;-72
2022/04/30 07:06:16;;;;;;;10.18;3.00;;;;;;;;;;5049910;28;20025;-72
2022/04/30 07:08:41;;;;;;;4.32;2.45;;;;;;;;;;5049719;28;20045;-73
2022/04/30 07:11:07;;;;;;;5.22;2.67;;;;;;;;;;5032100;28;20029;-71
2022/04/30 07:13:32;;;;;;;4.45;2.60;;;;;;;;;;5049882;28;20033;-70
2022/04/30 07:16:03;;;;;;;6.68;2.78;;;;;;;;;;5049889;28;20032;-71
2022/04/30 07:18:29;;;;;;;7.90;2.78;;;;;;;;;;5049891;28;20168;-73
2022/04/30 07:20:55;;;;;;;6.68;2.60;;;;;;;;;;5049816;28;20059;-69
2022/04/30 07:23:21;;;;;;;5.88;2.72;;;;;;;;;;5049851;28;20039;-73
2022/04/30 07:25:47;;;;;;;4.75;2.60;;;;;;;;;;5049770;28;20384;-70
2022/04/30 07:28:12;;;;;;;7.97;2.70;;;;;;;;;;5049372;28;20493;-70
2022/04/30 07:30:38;;;;;;;4.38;2.60;;;;;;;;;;5047295;28;20040;-72
2022/04/30 07:33:03;;;;;;;5.57;2.55;;;;;;;;;;5048791;28;20124;-71
2022/04/30 07:35:29;;;;;;;3.67;2.47;;;;;;;;;;5048331;28;20056;-70
2022/04/30 07:37:54;;;;;;;7.38;2.70;;;;;;;;;;5048371;28;20443;-69
2022/04/30 07:40:20;;;;;;;6.20;2.60;;;;;;;;;;5048262;28;20029;-71
2022/04/30 07:42:45;;;;;;;3.88;2.28;;;;;;;;;;5048170;28;20065;-71
2022/04/30 07:45:11;;;;;;;5.93;2.50;;;;;;;;;;5047980;28;20065;-70
2022/04/30 07:47:36;;;;;;;3.78;2.60;;;;;;;;;;5048751;28;20037;-74
2022/04/30 07:50:04;;;;;;;7.53;2.65;;;;;;;;;;5048711;28;20040;-71
2022/04/30 07:52:30;;;;;;;5.72;2.60;;;;;;;;;;5050546;28;20120;-73
2022/04/30 07:54:55;;;;;;;4.63;2.50;;;;;;;;;;5048857;28;20107;-72
2022/04/30 07:57:20;;;;;;;8.48;2.63;;;;;;;;;;5047147;28;20416;-70
2022/04/30 07:59:46;;;;;;;4.57;2.30;;;;;;;;;;5039705;28;20029;-73
2022/04/30 08:02:12;;;;;;;7.63;2.70;;;;;;;;;;5048860;28;20177;-72
2022/04/30 08:04:37;;;;;;;6.40;2.75;;;;;;;;;;5049091;28;20106;-71
2022/04/30 08:07:03;;;;;;;4.32;2.65;;;;;;;;;;5048203;28;20033;-71
2022/04/30 08:09:28;;;;;;;4.70;2.60;;;;;;;;;;5048094;28;20064;-74
2022/04/30 08:11:53;;;;;;;4.05;2.60;;;;;;;;;;5048345;28;20116;-70
2022/04/30 08:14:19;;;;;;;4.28;2.45;;;;;;;;;;5048017;28;20419;-72
2022/04/30 08:16:44;;;;;;;5.18;2.33;;;;;;;;;;5047964;28;20307;-72
2022/04/30 08:19:10;;;;;;;6.22;2.60;;;;;;;;;;5047928;28;20021;-73
2022/04/30 08:21:35;;;;;;;6.93;2.50;;;;;;;;;;5047926;28;20465;-72
2022/04/30 08:24:01;;;;;;;6.25;2.60;;;;;;;;;;5048744;28;20497;-73
2022/04/30 08:26:26;;;;;;;5.07;2.80;;;;;;;;;;5048197;28;20515;-72
2022/04/30 08:28:52;;;;;;;5.78;2.78;;;;;;;;;;5046300;28;20036;-69
2022/04/30 08:31:18;;;;;;;4.32;2.50;;;;;;;;;;5045711;28;20036;-73
2022/04/30 08:33:43;;;;;;;5.18;2.67;;;;;;;;;;5047966;28;20021;-72
2022/04/30 08:36:09;;;;;;;5.82;2.80;;;;;;;;;;5050276;28;20035;-70
2022/04/30 08:38:34;;;;;;;7.25;2.53;;;;;;;;;;5043143;28;20030;-70
2022/04/30 08:41:00;;;;;;;9.93;2.60;;;;;;;;;;5046283;28;20048;-69
2022/04/30 08:43:27;;;;;;;5.80;2.70;;;;;;;;;;5048148;28;20030;-70
2022/04/30 08:45:52;;;;;;;7.32;2.95;;;;;;;;;;5047507;28;20037;-69
2022/04/30 08:48:17;;;;;;;6.75;2.60;;;;;;;;;;5048441;28;20040;-72
2022/04/30 08:50:45;;;;;;;5.80;2.75;;;;;;;;;;5050222;28;20443;-72
2022/04/30 08:53:11;;;;;;;5.32;2.80;;;;;;;;;;5048308;28;20024;-71
2022/04/30 08:55:37;;;;;;;6.05;2.92;;;;;;;;;;5047922;28;20444;-71
2022/04/30 08:58:03;;;;;;;8.93;3.00;;;;;;;;;;5053708;28;20517;-74
2022/04/30 09:00:28;;;;;;;5.90;2.90;;;;;;;;;;5051259;28;20025;-79
2022/04/30 09:02:58;;;;;;;5.25;2.83;;;;;;;;;;5051637;28;20108;-76
2022/04/30 09:05:37;;;;;;;5.45;2.83;;;;;;;;;;5051095;28;20028;-71
2022/04/30 09:08:04;;;;;;;5.00;2.50;;;;;;;;;;5051017;28;20025;-77
2022/04/30 09:10:31;;;;;;;3.83;2.33;;;;;;;;;;5054194;28;20332;-73
2022/04/30 09:13:07;;;;;;;3.60;2.33;;;;;;;;;;5053204;28;20496;-70
2022/04/30 09:15:34;;;;;;;7.55;2.50;;;;;;;;;;5051982;28;20488;-75
2022/04/30 09:18:00;;;;;;;5.32;2.83;;;;;;;;;;5051016;28;20029;-75
2022/04/30 09:20:26;;;;;;;8.05;2.35;;;;;;;;;;5054759;28;20112;-77
2022/04/30 09:22:52;;;;;;;3.65;2.50;;;;;;;;;;5051202;28;20340;-74
2022/04/30 09:25:19;;;;;;;4.43;2.30;;;;;;;;;;5043631;28;20036;-75
2022/04/30 09:27:51;;;;;;;5.20;2.33;;;;;;;;;;5050825;28;20029;-74
2022/04/30 09:30:18;;;;;;;3.47;2.25;;;;;;;;;;5043449;28;20390;-75
2022/04/30 09:32:44;;;;;;;5.57;2.75;;;;;;;;;;5044735;28;20025;-74
2022/04/30 09:38:04;;;;;;;5.40;2.97;;;;;;;;;;5050191;28;20102;-72
2022/04/30 09:40:31;;;;;;;5.82;2.58;;;;;;;;;;5041082;28;20032;-73
2022/04/30 09:42:56;;;;;;;5.05;2.10;;;;;;;;;;5048871;28;20288;-73
2022/04/30 09:45:40;;;;;;;5.82;2.28;;;;;;;;;;5047927;28;20266;-73
2022/04/30 09:53:56;;;;;;;3.22;2.28;;;;;;;;;;5043775;28;20250;-72
2022/04/30 09:56:35;;;;;;;5.45;2.45;;;;;;;;;;5039090;28;20461;-73
2022/04/30 09:59:12;;;;;;;4.13;2.30;;;;;;;;;;5037937;28;20029;-75
2022/04/30 10:01:40;;;;;;;6.05;2.60;;;;;;;;;;5050122;28;20409;-73
2022/04/30 10:04:07;;;;;;;4.60;2.47;;;;;;;;;;5041193;28;20048;-69
2022/04/30 10:06:34;;;;;;;4.88;2.50;;;;;;;;;;5050043;28;20028;-73
2022/04/30 10:09:01;;;;;;;5.70;2.80;;;;;;;;;;5049999;28;20056;-71
2022/04/30 10:11:34;;;;;;;7.32;2.70;;;;;;;;;;5043826;28;20500;-74
2022/04/30 10:14:28;;;;;;;8.18;2.60;;;;;;;;;;5050043;28;20036;-73
2022/04/30 10:17:12;;;;;;;10.00;2.70;;;;;;;;;;5050056;28;20060;-73
2022/04/30 10:19:38;;;;;;;4.80;3.10;;;;;;;;;;5049892;28;20052;-73
2022/04/30 10:22:13;;;;;;;6.35;2.70;;;;;;;;;;5050511;28;20079;-73
2022/04/30 10:24:50;;;;;;;12.40;2.90;;;;;;;;;;5049895;28;20033;-72
2022/04/30 10:27:17;;;;;;;4.68;2.50;;;;;;;;;;5050015;28;20416;-76
2022/04/30 10:29:54;;;;;;;4.63;2.67;;;;;;;;;;5049467;28;20028;-74
2022/04/30 10:32:28;;;;;;;5.35;2.70;;;;;;;;;;5049744;28;20166;-73
2022/04/30 10:34:54;;;;;;;4.90;2.70;;;;;;;;;;5049672;28;20135;-78
2022/04/30 10:37:36;;;;;;;4.32;2.50;;;;;;;;;;5036135;28;20444;-74
2022/04/30 10:40:07;;;;;;;6.07;3.20;;;;;;;;;;5045778;28;20029;-74
2022/04/30 10:42:38;;;;;;;;;;;;;;;;;;5046705;28;20283;-73
2022/04/30 10:45:04;;;;;;;4.13;2.90;;;;;;;;;;5041122;28;19932;-74
2022/04/30 10:47:30;;;;;;;7.82;3.22;;;;;;;;;;5049372;28;20102;-76
2022/04/30 10:49:55;;;;;;;5.28;3.30;;;;;;;;;;5031764;28;20057;-74
2022/04/30 10:52:24;;;;;;;6.38;3.17;;;;;;;;;;5049476;28;20021;-73
2022/04/30 10:54:51;;;;;;;4.43;2.90;;;;;;;;;;5046740;28;20087;-72
2022/04/30 10:57:16;;;;;;;7.15;3.15;;;;;;;;;;5049409;28;20056;-72
2022/04/30 10:59:42;;;;;;;7.68;3.45;;;;;;;;;;5043007;28;20068;-72
2022/04/30 11:02:14;;;;;;;5.68;3.30;;;;;;;;;;5048047;28;20029;-74
2022/04/30 11:04:43;;;;;;;7.40;3.17;;;;;;;;;;5049228;28;20025;-72
2022/04/30 11:07:09;;;;;;;9.73;2.90;;;;;;;;;;5046730;28;20029;-71
2022/04/30 11:09:45;;;;;;;5.85;2.80;;;;;;;;;;5028792;28;20048;-71
2022/04/30 11:12:14;;;;;;;11.95;3.17;;;;;;;;;;5027562;28;20022;-71
2022/04/30 11:14:44;;;;;;;5.90;2.42;;;;;;;;;;5028682;28;20032;-72
2022/04/30 11:17:09;;;;;;;4.05;2.85;;;;;;;;;;5029400;28;20021;-74
2022/04/30 11:19:43;;;;;;;6.35;3.10;;;;;;;;;;5029232;28;20027;-71
2022/04/30 11:22:09;;;;;;;8.25;3.20;;;;;;;;;;5029269;28;20030;-73
2022/04/30 11:24:37;;;;;;;8.43;3.20;;;;;;;;;;5029203;28;20032;-72
2022/04/30 11:27:12;;;;;;;5.97;2.65;;;;;;;;;;5029022;28;20079;-73
2022/04/30 11:29:48;;;;;;;7.63;2.83;;;;;;;;;;5029066;28;20061;-72
2022/04/30 11:32:26;;;;;;;3.70;2.50;;;;;;;;;;5029814;28;20071;-71
2022/04/30 11:34:59;;;;;;;5.20;2.50;;;;;;;;;;5029416;28;20029;-73
2022/04/30 11:37:25;;;;;;;4.72;2.45;;;;;;;;;;5028735;28;20112;-72
2022/04/30 11:39:50;;;;;;;6.70;2.47;;;;;;;;;;5028918;28;20109;-72
2022/04/30 11:42:16;;;;;;;5.82;2.70;;;;;;;;;;5028445;28;20504;-71
2022/04/30 11:44:43;;;;;;;6.28;2.65;;;;;;;;;;5028743;28;20448;-73
2022/04/30 11:47:11;;;;;;;4.03;2.35;;;;;;;;;;5029093;28;20025;-73
2022/04/30 11:49:37;;;;;;;6.20;2.63;;;;;;;;;;5028945;28;20087;-72
2022/04/30 11:52:03;;;;;;;5.20;2.40;;;;;;;;;;5029210;28;20037;-72
2022/04/30 11:54:29;;;;;;;4.38;2.00;;;;;;;;;;5011867;28;20104;-71
2022/04/30 11:56:58;;;;;;;4.18;2.35;;;;;;;;;;5047333;28;20025;-71
2022/04/30 11:59:36;;;;;;;3.85;2.10;;;;;;;;;;5035703;28;20040;-71
2022/04/30 12:02:10;;;;;;;7.65;2.28;;;;;;;;;;5035881;28;20282;-72
2022/04/30 12:04:37;;;;;;;4.78;2.17;;;;;;;;;;5048729;28;20091;-71
2022/04/30 12:07:07;;;;;;;2.85;1.98;;;;;;;;;;5048546;28;20037;-71
2022/04/30 12:09:37;;;;;;;6.80;2.00;;;;;;;;;;5048704;28;20056;-71
2022/04/30 12:12:16;;;;;;;3.22;1.92;;;;;;;;;;5048581;28;20075;-71
2022/04/30 12:14:46;;;;;;;5.93;2.17;;;;;;;;;;5048442;28;20043;-71
2022/04/30 12:17:11;;;;;;;3.60;1.80;;;;;;;;;;5048295;28;20100;-71
2022/04/30 12:25:18;;;;;;;3.93;2.03;;;;;;;;;;5048935;28;20079;-71
2022/04/30 12:27:56;;;;;;;4.00;1.85;;;;;;;;;;5048522;28;20063;-71
2022/04/30 12:30:23;;;;;;;3.92;2.00;;;;;;;;;;5048930;28;20032;-73
2022/04/30 12:33:05;;;;;;;5.45;1.80;;;;;;;;;;5051567;28;20025;-73
2022/04/30 12:35:38;;;;;;;4.32;1.80;;;;;;;;;;5052280;28;20029;-72
2022/04/30 12:38:13;;;;;;;5.68;2.05;;;;;;;;;;5051835;28;20041;-71
2022/04/30 12:40:48;;;;;;;3.22;2.05;;;;;;;;;;5045282;28;20030;-74
2022/04/30 12:43:14;;;;;;;9.07;1.80;;;;;;;;;;5031921;28;20033;-73
2022/04/30 12:45:44;;;;;;;5.88;1.70;;;;;;;;;;5031904;28;20421;-73
2022/04/30 12:48:09;;;;;;;3.63;1.80;;;;;;;;;;5041441;28;20037;-72
2022/04/30 12:50:36;;;;;;;2.40;1.67;;;;;;;;;;5051322;28;20043;-73
2022/04/30 12:53:09;;;;;;;3.63;1.73;;;;;;;;;;5051166;28;20029;-72
2022/04/30 12:55:39;;;;;;;3.78;1.83;;;;;;;;;;5051262;28;20025;-72
2022/04/30 12:58:06;;;;;;;2.60;1.90;;;;;;;;;;5051107;28;20033;-73
2022/04/30 13:00:34;;;;;;;3.90;1.77;;;;;;;;;;5044922;28;20334;-73
2022/04/30 13:03:00;;;;;;;3.95;2.28;;;;;;;;;;5045721;28;20507;-73
2022/04/30 13:05:27;;;;;;;4.63;2.30;;;;;;;;;;5051176;28;20025;-73
2022/04/30 13:07:53;;;;;;;5.35;2.15;;;;;;;;;;5040090;28;20030;-72
2022/04/30 13:15:47;;;;;;;4.40;1.75;;;;;;;;;;5051301;28;20040;-72
2022/04/30 13:18:13;;;;;;;5.43;2.05;;;;;;;;;;5050990;28;20024;-71
2022/04/30 13:20:38;;;;;;;5.75;1.88;;;;;;;;;;5051397;28;20412;-71
2022/04/30 13:23:04;;;;;;;5.70;2.10;;;;;;;;;;5050608;28;20083;-72
2022/04/30 13:25:30;;;;;;;3.60;2.08;;;;;;;;;;5050935;28;20443;-72
2022/04/30 13:27:56;;;;;;;5.40;1.90;;;;;;;;;;5050915;28;20029;-72
2022/04/30 13:30:29;;;;;;;4.57;2.03;;;;;;;;;;5050584;28;20041;-73
2022/04/30 13:32:54;;;;;;;3.95;1.98;;;;;;;;;;5050833;28;20039;-72
2022/04/30 13:35:20;;;;;;;6.00;1.80;;;;;;;;;;5051028;28;20032;-71
2022/04/30 13:37:46;;;;;;;4.57;1.88;;;;;;;;;;5050881;28;20063;-73
2022/04/30 13:40:16;;;;;;;4.32;2.20;;;;;;;;;;5050127;28;20824;-72
2022/04/30 13:42:44;;;;;;;4.10;1.90;;;;;;;;;;5047852;28;20141;-71
2022/04/30 13:45:12;;;;;;;3.63;1.77;;;;;;;;;;5049043;28;20045;-71
2022/04/30 13:47:38;;;;;;;3.40;1.80;;;;;;;;;;5047974;28;20033;-72
2022/04/30 13:50:05;;;;;;;6.28;2.20;;;;;;;;;;5046968;28;20060;-72
2022/04/30 13:52:32;;;;;;;3.35;1.80;;;;;;;;;;5043606;28;20030;-72
2022/04/30 13:54:58;;;;;;;4.82;1.92;;;;;;;;;;5050141;28;20393;-73
2022/04/30 13:57:24;;;;;;;3.78;1.80;;;;;;;;;;5050518;28;20040;-72
2022/04/30 13:59:49;;;;;;;7.30;2.05;;;;;;;;;;5050305;28;20461;-73
2022/04/30 14:02:14;;;;;;;4.07;1.92;;;;;;;;;;5050378;28;20021;-72
2022/04/30 14:04:40;;;;;;;7.63;1.83;;;;;;;;;;5050397;28;20086;-72
2022/04/30 14:07:08;;;;;;;5.28;1.90;;;;;;;;;;5050342;28;20021;-74
2022/04/30 14:09:33;;;;;;;3.75;1.90;;;;;;;;;;5050496;28;20060;-75
2022/04/30 14:11:59;;;;;;;3.17;1.98;;;;;;;;;;5050027;28;20465;-77
2022/04/30 14:19:53;;;;;;;4.45;1.80;;;;;;;;;;5049901;28;20400;-72
2022/04/30 14:22:20;;;;;;;5.47;1.98;;;;;;;;;;5049893;28;20472;-73
2022/04/30 14:24:48;;;;;;;3.97;1.88;;;;;;;;;;5050008;28;20033;-73
2022/04/30 14:27:14;;;;;;;4.47;2.20;;;;;;;;;;5038508;28;20030;-75
2022/04/30 14:29:42;;;;;;;7.50;2.15;;;;;;;;;;5049463;28;20079;-76
2022/04/30 14:32:09;;;;;;;3.88;2.28;;;;;;;;;;5049623;28;20098;-74
2022/04/30 14:34:34;;;;;;;4.07;2.20;;;;;;;;;;5049849;28;20025;-72
2022/04/30 14:36:59;;;;;;;5.93;2.70;;;;;;;;;;5049544;28;20480;-73
2022/04/30 14:39:25;;;;;;;4.25;2.10;;;;;;;;;;5049260;28;20025;-71
2022/04/30 14:41:50;;;;;;;6.07;2.15;;;;;;;;;;5049602;28;20092;-72
2022/04/30 14:44:16;;;;;;;5.65;2.30;;;;;;;;;;5049216;28;20120;-72
2022/04/30 14:46:42;;;;;;;3.92;2.03;;;;;;;;;;5049390;28;20025;-72
2022/04/30 14:49:08;;;;;;;4.88;2.28;;;;;;;;;;5036424;28;20037;-71
2022/04/30 14:51:34;;;;;;;4.53;2.08;;;;;;;;;;5048831;28;20041;-72
2022/04/30 14:54:00;;;;;;;4.82;2.05;;;;;;;;;;5048223;28;20028;-72
2022/04/30 14:56:25;;;;;;;3.65;2.10;;;;;;;;;;5048888;28;20028;-73
2022/04/30 14:58:51;;;;;;;5.07;2.20;;;;;;;;;;5049345;28;20538;-71
2022/04/30 15:01:16;;;;;;;3.17;1.90;;;;;;;;;;5048557;28;20028;-72
2022/04/30 15:03:45;;;;;;;4.13;2.10;;;;;;;;;;5049201;28;20512;-73
2022/04/30 15:06:11;;;;;;;4.05;2.00;;;;;;;;;;5048913;28;20021;-71
2022/04/30 15:08:37;;;;;;;3.97;1.90;;;;;;;;;;5049006;28;20079;-73
2022/04/30 15:11:03;;;;;;;4.78;2.20;;;;;;;;;;5048777;28;20048;-72
2022/04/30 15:13:28;;;;;;;4.20;2.05;;;;;;;;;;5049081;28;20031;-71
2022/04/30 15:15:54;;;;;;;4.85;2.17;;;;;;;;;;5048556;28;20500;-72
2022/04/30 15:18:20;;;;;;;6.57;2.05;;;;;;;;;;5049213;28;20036;-71
2022/04/30 15:20:45;;;;;;;4.15;1.92;;;;;;;;;;5048792;28;20021;-72
2022/04/30 15:23:11;;;;;;;5.03;2.25;;;;;;;;;;5049140;28;20017;-72
2022/04/30 15:25:37;;;;;;;5.20;2.30;;;;;;;;;;5049253;28;20025;-71
2022/04/30 15:28:02;;;;;;;7.05;2.20;;;;;;;;;;5048449;28;20033;-71
2022/04/30 15:30:29;;;;;;;6.47;1.92;;;;;;;;;;5048053;28;20020;-71
2022/04/30 15:32:54;;;;;;;6.05;1.90;;;;;;;;;;5048773;28;20024;-71
2022/04/30 15:35:20;;;;;;;4.15;2.00;;;;;;;;;;5048566;28;20779;-71
2022/04/30 15:37:46;;;;;;;3.97;1.90;;;;;;;;;;5048683;28;20028;-71
2022/04/30 15:40:12;;;;;;;4.47;1.92;;;;;;;;;;5048560;28;20451;-72